Time;durP1;ratioP1;P1;durP2;ratioP2;P2;SDS_P1;SDS_P2;PMS_P1;PMS_P2;Temp;Humidity;BMP_temperature;BMP_pressure;BME280_temperature;BME280_humidity;BME280_pressure;Samples;Min_cycle;Max_cycle;Signal;HPM_P1;HPM_P2
2023/02/26 00:02:17;;;;;;;1.33;1.00;;;;;;;2.13;67.22;96672.94;6265701;28;20243;-72
2023/02/26 00:05:19;;;;;;;1.17;0.97;;;;;;;2.03;68.89;96704.91;6265859;28;20237;-71
2023/02/26 00:08:21;;;;;;;1.30;1.20;;;;;;;1.89;67.33;96725.19;6266215;28;20233;-71
2023/02/26 00:11:24;;;;;;;1.40;1.30;;;;;;;1.82;66.00;96695.53;6272145;28;20229;-72
2023/02/26 00:14:27;;;;;;;1.40;1.20;;;;;;;2.07;66.12;96735.00;6263463;28;20225;-73
2023/02/26 00:17:32;;;;;;;1.20;1.10;;;;;;;2.14;66.77;96758.59;6272316;28;20240;-73
2023/02/26 00:20:36;;;;;;;2.00;1.70;;;;;;;1.72;66.51;96716.97;6276355;28;20232;-73
2023/02/26 00:23:38;;;;;;;3.03;1.93;;;;;;;1.96;65.88;96754.03;6251882;28;20271;-73
2023/02/26 00:26:40;;;;;;;1.50;1.40;;;;;;;1.68;66.62;96709.75;6256186;28;21002;-72
2023/02/26 00:29:42;;;;;;;1.57;1.40;;;;;;;2.06;66.41;96763.06;6263627;28;20254;-72
2023/02/26 00:32:45;;;;;;;1.50;1.40;;;;;;;1.90;66.48;96718.91;6252047;28;20218;-72
2023/02/26 00:35:48;;;;;;;1.80;1.53;;;;;;;2.02;67.15;96740.06;6251568;28;20227;-72
2023/02/26 00:39:05;;;;;;;1.77;1.60;;;;;;;2.01;67.38;96730.56;6232868;28;20592;-73
2023/02/26 00:42:10;;;;;;;1.30;1.20;;;;;;;1.76;68.31;96685.88;6242161;28;20239;-73
2023/02/26 00:45:13;;;;;;;1.53;1.43;;;;;;;1.88;68.06;96702.56;6272110;28;20210;-72
2023/02/26 00:48:39;;;;;;;1.60;1.50;;;;;;;1.81;68.47;96692.09;6274598;28;20203;-72
2023/02/26 00:51:48;;;;;;;1.80;1.70;;;;;;;1.92;67.99;96689.81;6267278;28;20316;-72
2023/02/26 00:54:50;;;;;;;1.70;1.60;;;;;;;1.76;67.98;96656.97;6268360;28;20235;-72
2023/02/26 00:57:52;;;;;;;1.70;1.60;;;;;;;1.66;68.65;96675.81;6255104;28;20230;-72
2023/02/26 01:00:54;;;;;;;1.70;1.60;;;;;;;1.24;68.20;96620.31;6272889;28;20226;-72
2023/02/26 01:03:57;;;;;;;1.97;1.70;;;;;;;1.45;68.16;96632.31;6271799;28;20658;-73
2023/02/26 01:06:59;;;;;;;2.03;1.90;;;;;;;1.64;68.11;96672.59;6271260;28;20255;-71
2023/02/26 01:10:01;;;;;;;2.13;1.93;;;;;;;1.71;68.69;96681.25;6272696;28;20654;-72
2023/02/26 01:13:04;;;;;;;2.10;1.93;;;;;;;1.51;68.83;96651.66;6266084;28;20573;-72
2023/02/26 01:16:15;;;;;;;2.10;1.90;;;;;;;1.42;68.52;96637.97;6275010;28;20315;-72
2023/02/26 01:19:42;;;;;;;2.20;2.00;;;;;;;1.17;68.61;96639.72;6272250;28;20247;-72
2023/02/26 01:23:07;;;;;;;2.93;2.43;;;;;;;1.17;68.95;96639.72;6273525;28;20835;-80
2023/02/26 01:26:21;;;;;;;2.97;2.67;;;;;;;1.56;69.12;96706.97;6275183;28;20226;-80
2023/02/26 01:29:24;;;;;;;3.47;2.73;;;;;;;1.35;69.26;96687.06;6273347;28;20229;-77
2023/02/26 01:32:45;;;;;;;2.70;2.50;;;;;;;1.34;69.17;96708.28;6270217;28;20721;-80
2023/02/26 01:35:57;;;;;;;2.87;2.57;;;;;;;1.41;69.44;96725.59;6272214;28;20698;-82
2023/02/26 01:39:09;;;;;;;4.53;2.10;;;;;;;1.43;69.72;96722.75;6269807;28;20232;-80
2023/02/26 01:42:19;;;;;;;2.60;2.40;;;;;;;0.66;69.75;96616.88;6268989;28;20610;-80
2023/02/26 01:45:30;;;;;;;3.43;2.10;;;;;;;1.40;69.43;96728.44;6224897;28;20225;-80
2023/02/26 01:48:37;;;;;;;3.27;1.97;;;;;;;1.37;69.79;96721.75;6252955;28;20637;-80
2023/02/26 01:51:46;;;;;;;2.37;2.17;;;;;;;1.30;69.60;96710.50;6264337;28;20226;-81
2023/02/26 01:54:49;;;;;;;2.60;2.40;;;;;;;0.37;69.33;96565.75;6237646;28;20343;-81
2023/02/26 01:57:54;;;;;;;2.40;2.20;;;;;;;0.83;68.91;96640.81;6248738;28;20271;-80
2023/02/26 02:00:56;;;;;;;2.00;1.70;;;;;;;0.96;69.15;96644.22;6227937;28;20595;-80
2023/02/26 02:03:59;;;;;;;2.67;2.27;;;;;;;1.13;66.86;96717.19;6238731;28;20335;-81
2023/02/26 02:07:03;;;;;;;2.40;2.20;;;;;;;0.48;66.13;96651.56;6247343;28;20731;-83
2023/02/26 02:10:06;;;;;;;1.80;1.70;;;;;;;0.81;66.78;96690.84;6246176;28;20319;-81
2023/02/26 02:13:30;;;;;;;2.00;1.80;;;;;;;1.21;66.67;96751.06;6242654;28;20235;-81
2023/02/26 02:16:32;;;;;;;1.60;1.50;;;;;;;1.22;66.09;96742.19;6253835;28;20237;-81
2023/02/26 02:20:23;;;;;;;1.37;1.27;;;;;;;0.96;64.20;96722.88;6240255;28;20240;-82
2023/02/26 02:23:25;;;;;;;2.07;1.60;;;;;;;1.02;65.31;96737.78;6243179;28;20238;-81
2023/02/26 02:26:52;;;;;;;2.70;1.73;;;;;;;1.09;65.74;96744.88;6276782;28;20399;-80
2023/02/26 02:30:48;;;;;;;1.67;1.57;;;;;;;1.06;65.44;96743.44;6264949;28;20226;-80
2023/02/26 02:34:20;;;;;;;2.23;2.03;;;;;;;0.86;64.96;96712.00;6126616;28;20750;-80
2023/02/26 02:37:35;;;;;;;1.73;1.63;;;;;;;0.76;65.29;96709.81;6138765;28;20376;-80
2023/02/26 02:40:45;;;;;;;2.10;1.43;;;;;;;1.05;66.16;96752.31;6124079;28;20228;-79
2023/02/26 02:43:49;;;;;;;4.23;1.77;;;;;;;0.73;66.71;96718.06;6152596;28;20884;-80
2023/02/26 02:46:54;;;;;;;3.00;2.07;;;;;;;0.97;66.96;96771.69;6164240;28;20235;-80
2023/02/26 02:50:04;;;;;;;1.70;1.60;;;;;;;0.86;66.35;96767.06;6153461;28;20233;-80
2023/02/26 02:53:16;;;;;;;1.57;1.47;;;;;;;0.77;67.14;96761.22;6170387;28;20358;-77
2023/02/26 02:56:32;;;;;;;1.77;1.63;;;;;;;0.84;66.54;96761.22;6161454;28;20282;-79
2023/02/26 02:59:41;;;;;;;1.73;1.63;;;;;;;0.53;66.58;96714.66;6149267;28;20333;-79
2023/02/26 03:03:09;;;;;;;2.30;1.90;;;;;;;0.80;66.80;96762.63;6149281;28;20234;-80
2023/02/26 03:06:12;;;;;;;1.90;1.70;;;;;;;0.80;67.05;96754.78;6272610;28;20316;-79
2023/02/26 03:09:15;;;;;;;2.10;1.90;;;;;;;0.63;67.17;96749.13;6273436;28;20277;-81
2023/02/26 03:12:17;;;;;;;1.80;1.70;;;;;;;0.94;66.95;96824.56;6282903;28;20211;-83
2023/02/26 03:15:32;;;;;;;1.70;1.60;;;;;;;0.80;66.45;96794.09;6269465;28;20205;-81
2023/02/26 03:19:11;;;;;;;1.67;1.57;;;;;;;0.84;66.46;96829.41;6250637;28;20232;-81
2023/02/26 03:22:32;;;;;;;1.40;1.30;;;;;;;0.89;66.52;96828.78;6272920;28;20216;-80
2023/02/26 03:25:38;;;;;;;1.83;1.60;;;;;;;0.81;65.48;96816.69;6274560;28;20267;-76
2023/02/26 03:29:01;;;;;;;1.67;1.57;;;;;;;0.90;66.01;96818.09;6277700;28;20246;-76
2023/02/26 03:32:14;;;;;;;2.10;1.70;;;;;;;0.46;66.42;96753.16;6266972;28;20605;-76
2023/02/26 03:35:25;;;;;;;1.77;1.67;;;;;;;0.85;66.43;96809.22;6287937;28;20694;-76
2023/02/26 03:38:46;;;;;;;2.63;1.70;;;;;;;0.61;65.74;96790.47;6258005;28;20227;-75
2023/02/26 03:41:56;;;;;;;2.53;2.00;;;;;;;0.81;66.26;96827.16;6275998;28;20242;-76
2023/02/26 03:45:07;;;;;;;1.57;1.47;;;;;;;0.89;66.30;96836.66;6232553;28;20246;-77
2023/02/26 03:48:14;;;;;;;2.00;1.77;;;;;;;0.88;66.32;96843.69;6239835;28;20219;-76
2023/02/26 03:51:18;;;;;;;1.97;1.77;;;;;;;0.85;66.17;96841.50;6261067;28;20299;-76
2023/02/26 03:55:02;;;;;;;1.90;1.70;;;;;;;0.76;66.35;96835.63;6193130;28;20226;-76
2023/02/26 03:58:40;;;;;;;1.83;1.70;;;;;;;0.47;65.99;96799.31;6239908;28;20602;-74
2023/02/26 04:02:10;;;;;;;1.70;1.40;;;;;;;0.56;65.90;96824.31;6274024;28;20661;-75
2023/02/26 04:05:19;;;;;;;1.40;1.20;;;;;;;0.86;66.16;96860.66;6274787;28;20225;-76
2023/02/26 04:08:23;;;;;;;1.47;1.37;;;;;;;0.54;66.11;96802.72;6268680;28;20700;-75
2023/02/26 04:11:26;;;;;;;1.70;1.50;;;;;;;0.69;65.73;96837.44;6244708;28;20243;-76
2023/02/26 04:14:28;;;;;;;2.13;1.60;;;;;;;1.03;66.21;96885.44;6255716;28;20218;-75
2023/02/26 04:17:31;;;;;;;1.87;1.60;;;;;;;1.05;65.74;96885.28;6258148;28;20292;-75
2023/02/26 04:20:35;;;;;;;2.70;1.67;;;;;;;1.03;65.52;96898.56;6274301;28;20222;-75
2023/02/26 04:23:37;;;;;;;2.53;1.50;;;;;;;0.47;66.14;96828.13;6288150;28;20786;-75
2023/02/26 04:26:39;;;;;;;1.50;1.40;;;;;;;0.71;66.38;96860.81;6279330;28;20301;-76
2023/02/26 04:29:41;;;;;;;3.07;1.47;;;;;;;0.97;65.70;96896.75;6274423;28;20224;-76
2023/02/26 04:32:43;;;;;;;2.10;1.30;;;;;;;0.58;65.82;96838.00;6281354;28;20231;-76
2023/02/26 04:35:47;;;;;;;1.30;1.20;;;;;;;0.96;65.82;96897.75;6254522;28;20295;-76
2023/02/26 04:38:50;;;;;;;1.70;1.60;;;;;;;0.94;66.07;96905.03;6256841;28;20243;-77
2023/02/26 04:41:52;;;;;;;2.13;1.67;;;;;;;0.41;66.28;96848.06;6256791;28;20231;-77
2023/02/26 04:44:54;;;;;;;1.83;1.70;;;;;;;0.24;66.13;96837.13;6278719;28;20245;-76
2023/02/26 04:47:59;;;;;;;1.93;1.73;;;;;;;0.03;66.24;96805.84;6249879;28;20219;-75
2023/02/26 04:51:01;;;;;;;1.60;1.50;;;;;;;0.42;66.73;96869.84;6255465;28;20223;-76
2023/02/26 04:54:03;;;;;;;1.90;1.80;;;;;;;0.70;67.38;96904.59;6260055;28;20234;-76
2023/02/26 04:57:07;;;;;;;1.80;1.70;;;;;;;0.66;66.42;96899.94;6250493;28;20222;-75
2023/02/26 05:00:10;;;;;;;1.90;1.80;;;;;;;0.67;66.48;96891.06;6255105;28;20233;-77
2023/02/26 05:03:13;;;;;;;1.70;1.53;;;;;;;0.38;66.59;96847.66;6256696;28;21425;-75
2023/02/26 05:06:15;;;;;;;2.10;1.90;;;;;;;0.72;67.22;96904.38;6266473;28;20875;-75
2023/02/26 05:09:17;;;;;;;1.67;1.57;;;;;;;0.75;67.06;96907.41;6268011;28;20374;-75
2023/02/26 05:12:19;;;;;;;2.63;2.10;;;;;;;0.49;66.91;96879.34;6266760;28;20211;-75
2023/02/26 05:15:22;;;;;;;1.67;1.57;;;;;;;0.47;66.75;96876.09;6267163;28;20230;-74
2023/02/26 05:18:24;;;;;;;2.23;2.00;;;;;;;0.82;67.43;96920.53;6254118;28;20692;-75
2023/02/26 05:21:26;;;;;;;1.90;1.80;;;;;;;0.66;67.71;96915.66;6257067;28;20228;-74
2023/02/26 05:24:28;;;;;;;2.03;1.83;;;;;;;0.73;67.39;96934.81;6255903;28;20239;-75
2023/02/26 05:27:30;;;;;;;2.00;1.80;;;;;;;0.72;68.28;96938.44;6259628;28;20722;-77
2023/02/26 05:30:32;;;;;;;2.00;1.73;;;;;;;0.64;68.04;96904.53;6262569;28;20227;-77
2023/02/26 05:33:35;;;;;;;2.50;2.30;;;;;;;0.84;68.41;96941.28;6249359;28;20687;-75
2023/02/26 05:36:37;;;;;;;1.70;1.60;;;;;;;0.71;68.08;96928.97;6273962;28;20300;-74
2023/02/26 05:39:40;;;;;;;2.00;1.90;;;;;;;0.91;67.94;96958.66;6267476;28;20310;-75
2023/02/26 05:42:42;;;;;;;2.60;1.80;;;;;;;0.96;67.97;96963.31;6273098;28;21110;-75
2023/02/26 05:45:44;;;;;;;1.73;1.63;;;;;;;0.94;68.10;96968.78;6273538;28;20215;-75
2023/02/26 05:48:46;;;;;;;2.10;1.83;;;;;;;0.93;67.73;96979.44;6255482;28;20227;-76
2023/02/26 05:51:48;;;;;;;1.93;1.77;;;;;;;0.84;68.31;96980.63;6264266;28;20472;-76
2023/02/26 05:54:50;;;;;;;1.97;1.87;;;;;;;0.24;68.21;96888.69;6287627;28;20223;-76
2023/02/26 05:57:52;;;;;;;2.10;1.90;;;;;;;0.60;68.21;96959.19;6269538;28;20240;-76
2023/02/26 06:00:57;;;;;;;2.27;2.07;;;;;;;0.72;67.86;96975.97;6270714;28;20222;-75
2023/02/26 06:03:59;;;;;;;2.30;2.07;;;;;;;0.82;68.75;96993.94;6256932;28;20219;-74
2023/02/26 06:07:01;;;;;;;2.23;2.00;;;;;;;0.73;68.90;96993.28;6263129;28;20722;-74
2023/02/26 06:10:04;;;;;;;2.23;1.90;;;;;;;0.84;68.84;97012.06;6258172;28;20226;-75
2023/02/26 06:13:06;;;;;;;2.27;1.90;;;;;;;0.41;68.99;96949.44;6262875;28;20229;-75
2023/02/26 06:16:09;;;;;;;2.30;2.13;;;;;;;0.36;69.09;96947.41;6285507;28;20317;-75
2023/02/26 06:19:11;;;;;;;2.23;2.03;;;;;;;0.75;69.84;97012.28;6268246;28;20341;-75
2023/02/26 06:22:13;;;;;;;2.40;2.20;;;;;;;0.78;70.36;97029.41;6243876;28;20227;-76
2023/02/26 06:25:16;;;;;;;2.70;2.30;;;;;;;0.73;70.28;97031.81;6238537;28;20691;-75
2023/02/26 06:28:18;;;;;;;2.17;1.97;;;;;;;0.73;71.17;97029.19;6249740;28;20702;-74
2023/02/26 06:31:20;;;;;;;2.07;1.97;;;;;;;0.32;70.68;96966.31;6248007;28;20226;-76
2023/02/26 06:34:23;;;;;;;2.60;2.40;;;;;;;0.61;71.15;97018.47;6239665;28;20233;-76
2023/02/26 06:37:28;;;;;;;2.40;2.20;;;;;;;0.24;72.03;96977.75;6235528;28;20269;-76
2023/02/26 06:40:36;;;;;;;4.13;2.27;;;;;;;0.47;71.79;97008.91;6253706;28;20234;-74
2023/02/26 06:43:38;;;;;;;2.60;2.40;;;;;;;0.52;72.30;97015.19;6256144;28;20443;-76
2023/02/26 06:46:41;;;;;;;3.10;2.80;;;;;;;0.55;71.97;97024.50;6246462;28;20234;-75
2023/02/26 06:49:43;;;;;;;2.60;2.40;;;;;;;0.36;71.68;96988.50;6269448;28;20245;-76
2023/02/26 06:52:45;;;;;;;3.53;2.50;;;;;;;0.70;72.16;97038.25;6232958;28;20226;-74
2023/02/26 06:55:50;;;;;;;2.43;2.23;;;;;;;0.74;71.85;97041.31;6248921;28;20226;-74
2023/02/26 06:58:52;;;;;;;2.50;2.30;;;;;;;0.55;71.31;97028.91;6272770;28;20283;-74
2023/02/26 07:01:56;;;;;;;2.53;2.30;;;;;;;0.90;70.83;97061.94;6263658;28;20226;-75
2023/02/26 07:04:58;;;;;;;2.70;2.50;;;;;;;0.92;70.77;97070.41;6264825;28;20443;-73
2023/02/26 07:08:00;;;;;;;2.83;2.50;;;;;;;0.86;70.70;97052.84;6250629;28;20886;-73
2023/02/26 07:11:04;;;;;;;2.40;2.20;;;;;;;0.56;70.09;97010.38;6259163;28;20237;-73
2023/02/26 07:14:06;;;;;;;2.57;2.37;;;;;;;0.20;70.54;96945.13;6243191;28;20234;-73
2023/02/26 07:17:08;;;;;;;2.67;2.40;;;;;;;0.90;69.61;97077.69;6259374;28;20562;-74
2023/02/26 07:20:12;;;;;;;2.60;2.40;;;;;;;0.80;70.17;97068.56;6262649;28;20986;-75
2023/02/26 07:23:15;;;;;;;2.63;2.33;;;;;;;1.05;70.16;97093.28;6244913;28;20260;-74
2023/02/26 07:26:18;;;;;;;2.70;2.50;;;;;;;0.95;69.95;97066.59;6265970;28;20579;-74
2023/02/26 07:29:20;;;;;;;2.30;2.10;;;;;;;1.20;69.89;97099.19;6272426;28;20869;-74
2023/02/26 07:32:22;;;;;;;1.90;1.77;;;;;;;1.16;70.28;97087.44;6266127;28;20217;-74
2023/02/26 07:35:25;;;;;;;2.00;1.80;;;;;;;1.08;69.94;97065.81;6261906;28;20705;-74
2023/02/26 07:38:27;;;;;;;2.33;2.13;;;;;;;1.46;69.46;97100.25;6270224;28;20229;-74
2023/02/26 07:41:29;;;;;;;2.30;2.10;;;;;;;1.11;69.20;97045.25;6250702;28;20315;-74
2023/02/26 07:44:32;;;;;;;2.50;2.30;;;;;;;1.05;68.83;97024.28;6279721;28;20219;-74
2023/02/26 07:47:35;;;;;;;2.50;2.30;;;;;;;1.42;68.63;97051.78;6230326;28;20232;-76
2023/02/26 07:50:37;;;;;;;1.70;1.60;;;;;;;1.40;67.96;97030.19;6229131;28;21077;-75
2023/02/26 07:53:40;;;;;;;2.30;2.10;;;;;;;1.95;67.91;97117.50;6227097;28;20231;-74
2023/02/26 07:56:43;;;;;;;2.30;2.07;;;;;;;1.76;67.10;97090.22;6259638;28;20228;-74
2023/02/26 07:59:45;;;;;;;1.60;1.50;;;;;;;1.65;66.70;97061.94;6228540;28;20272;-75
2023/02/26 08:02:48;;;;;;;1.83;1.73;;;;;;;2.09;66.17;97116.50;6248001;28;20231;-75
2023/02/26 08:05:50;;;;;;;2.00;1.80;;;;;;;2.07;66.72;97110.66;6255065;28;20222;-74
2023/02/26 08:08:52;;;;;;;1.77;1.67;;;;;;;1.71;65.59;97048.00;6264250;28;20220;-75
2023/02/26 08:11:55;;;;;;;2.27;1.83;;;;;;;2.23;65.21;97133.09;6258752;28;20238;-74
2023/02/26 08:14:57;;;;;;;2.10;1.90;;;;;;;2.41;64.49;97133.28;6249999;28;20323;-74
2023/02/26 08:17:59;;;;;;;2.40;2.20;;;;;;;2.40;63.20;97118.50;6255057;28;20261;-75
2023/02/26 08:21:02;;;;;;;2.00;1.80;;;;;;;2.70;62.71;97152.25;6269275;28;20663;-75
2023/02/26 08:24:04;;;;;;;2.10;1.93;;;;;;;3.15;61.55;97160.25;6272384;28;20214;-75
2023/02/26 08:27:07;;;;;;;2.43;1.87;;;;;;;4.86;56.23;97100.28;6268863;28;21608;-75
2023/02/26 08:30:11;;;;;;;2.10;1.90;;;;;;;6.28;51.91;97163.31;6250907;28;20227;-75
2023/02/26 08:33:13;;;;;;;1.30;1.20;;;;;;;5.55;51.45;97132.59;6230032;28;20214;-75
2023/02/26 08:36:15;;;;;;;1.70;1.60;;;;;;;5.44;51.77;97168.50;6256673;28;20273;-75
2023/02/26 08:39:18;;;;;;;1.90;1.80;;;;;;;4.97;52.82;97177.94;6270565;28;20770;-75
2023/02/26 08:42:20;;;;;;;2.87;1.60;;;;;;;5.39;53.37;97173.63;6259393;28;20206;-74
2023/02/26 08:45:22;;;;;;;1.40;1.23;;;;;;;5.33;51.79;97112.97;6258581;28;20778;-76
2023/02/26 08:48:24;;;;;;;1.97;1.47;;;;;;;4.87;51.94;97083.41;6251170;28;20592;-75
2023/02/26 08:51:26;;;;;;;1.93;1.47;;;;;;;4.61;53.83;97184.75;6245105;28;20338;-76
2023/02/26 08:54:30;;;;;;;1.80;1.40;;;;;;;4.20;54.85;97164.19;6249719;28;20594;-76
2023/02/26 08:57:33;;;;;;;1.73;1.50;;;;;;;4.01;56.88;97167.75;6265976;28;20899;-75
2023/02/26 09:00:35;;;;;;;2.20;1.60;;;;;;;3.97;54.32;97193.72;6263409;28;20385;-76
2023/02/26 09:03:37;;;;;;;1.70;1.60;;;;;;;3.83;54.83;97198.25;6255427;28;20305;-75
2023/02/26 09:06:40;;;;;;;1.63;1.40;;;;;;;3.43;54.56;97163.41;6274667;28;20589;-76
2023/02/26 09:09:43;;;;;;;2.20;1.57;;;;;;;3.54;55.40;97217.22;6242247;28;20238;-75
2023/02/26 09:12:45;;;;;;;1.50;1.40;;;;;;;3.26;56.44;97207.00;6249094;28;20769;-75
2023/02/26 09:15:48;;;;;;;1.40;1.30;;;;;;;3.03;56.63;97217.97;6230703;28;20664;-76
2023/02/26 09:18:50;;;;;;;1.30;1.10;;;;;;;3.04;57.19;97216.97;6230048;28;20226;-75
2023/02/26 09:21:52;;;;;;;1.70;1.60;;;;;;;2.81;56.70;97160.34;6245117;28;20237;-75
2023/02/26 09:24:54;;;;;;;2.10;1.43;;;;;;;3.22;55.40;97219.75;6269495;28;20244;-75
2023/02/26 09:27:56;;;;;;;1.53;1.37;;;;;;;3.03;55.21;97221.41;6239872;28;20234;-76
2023/02/26 09:30:59;;;;;;;1.60;1.40;;;;;;;2.93;57.10;97221.03;6242938;28;20595;-76
2023/02/26 09:34:02;;;;;;;1.47;1.37;;;;;;;2.74;56.96;97180.56;6243743;28;21011;-75
2023/02/26 09:37:05;;;;;;;2.00;1.80;;;;;;;3.12;57.00;97235.19;6260187;28;20235;-75
2023/02/26 09:40:19;;;;;;;1.37;1.20;;;;;;;2.99;56.28;97166.78;6235024;28;20817;-75
2023/02/26 09:43:33;;;;;;;1.80;1.23;;;;;;;3.61;53.54;97255.72;6263777;28;20233;-75
2023/02/26 09:47:07;;;;;;;1.47;1.10;;;;;;;3.81;54.31;97254.81;6244835;28;20238;-75
2023/02/26 09:50:13;;;;;;;1.40;1.03;;;;;;;3.80;53.74;97182.88;6242610;28;20774;-76
2023/02/26 09:53:33;;;;;;;1.57;1.10;;;;;;;4.33;54.09;97234.47;6263075;28;20230;-77
2023/02/26 09:56:38;;;;;;;1.37;1.20;;;;;;;4.33;52.25;97195.72;6256724;28;20497;-75
2023/02/26 09:59:42;;;;;;;1.30;1.13;;;;;;;5.01;50.87;97254.84;6250462;28;20711;-75
2023/02/26 10:03:03;;;;;;;1.35;1.20;;;;;;;5.34;49.51;97259.84;6247948;28;20679;-76
2023/02/26 10:06:18;;;;;;;1.23;1.10;;;;;;;5.33;48.74;97266.97;6262354;28;20829;-75
2023/02/26 10:09:43;;;;;;;2.13;1.03;;;;;;;5.39;48.43;97271.38;6265137;28;20231;-77
2023/02/26 10:12:49;;;;;;;1.10;0.93;;;;;;;5.56;48.55;97273.41;6267889;28;20735;-76
2023/02/26 10:15:54;;;;;;;1.57;0.93;;;;;;;5.77;49.00;97272.19;6271146;28;20720;-76
2023/02/26 10:19:17;;;;;;;1.93;1.00;;;;;;;5.26;48.02;97233.72;6257279;28;20238;-76
2023/02/26 10:22:58;;;;;;;1.10;0.80;;;;;;;5.53;45.79;97287.09;6252811;28;20324;-77
2023/02/26 10:26:18;;;;;;;0.90;0.90;;;;;;;5.80;45.56;97280.47;6190987;28;20330;-76
2023/02/26 10:29:37;;;;;;;1.03;0.93;;;;;;;5.56;46.46;97274.22;6253426;28;20223;-75
2023/02/26 10:32:48;;;;;;;1.40;0.90;;;;;;;4.98;46.41;97232.34;6265564;28;20251;-76
2023/02/26 10:35:53;;;;;;;0.60;0.53;;;;;;;4.86;46.50;97245.44;6257366;28;20238;-75
2023/02/26 10:39:15;;;;;;;0.70;0.70;;;;;;;4.33;46.67;97250.28;6241323;28;20708;-75
2023/02/26 10:42:25;;;;;;;1.63;0.90;;;;;;;4.89;44.66;97303.09;6234578;28;20271;-75
2023/02/26 10:45:51;;;;;;;1.20;0.80;;;;;;;5.33;43.97;97290.72;6237857;28;20233;-76
2023/02/26 10:49:36;;;;;;;1.47;0.80;;;;;;;5.87;43.14;97296.28;6245211;28;20898;-76
2023/02/26 10:52:42;;;;;;;0.60;0.53;;;;;;;6.57;43.39;97286.03;6262238;28;20232;-77
2023/02/26 10:56:15;;;;;;;0.70;0.70;;;;;;;6.68;42.81;97305.63;6245685;28;20265;-77
2023/02/26 10:59:17;;;;;;;0.77;0.50;;;;;;;5.90;39.47;97251.69;6254487;28;20774;-76
2023/02/26 11:02:34;;;;;;;0.60;0.60;;;;;;;5.46;41.33;97265.19;6257769;28;20306;-75
2023/02/26 11:05:38;;;;;;;0.77;0.70;;;;;;;5.42;41.66;97322.97;6231342;28;20241;-76
2023/02/26 11:08:48;;;;;;;1.20;0.80;;;;;;;4.91;43.69;97308.13;6237640;28;20248;-75
2023/02/26 11:11:52;;;;;;;1.07;0.90;;;;;;;4.41;44.56;97273.78;6240541;28;20342;-77
2023/02/26 11:14:55;;;;;;;1.00;0.60;;;;;;;4.56;45.78;97326.25;6256858;28;20627;-74
2023/02/26 11:18:00;;;;;;;1.37;0.70;;;;;;;4.73;45.29;97329.16;6246811;28;20715;-75
2023/02/26 11:21:04;;;;;;;0.83;0.73;;;;;;;4.95;45.67;97342.84;6245899;28;20266;-75
2023/02/26 11:24:29;;;;;;;0.73;0.63;;;;;;;4.80;44.42;97285.09;6253701;28;20702;-75
2023/02/26 11:27:35;;;;;;;1.93;0.80;;;;;;;5.24;43.45;97344.84;6240610;28;20231;-75
2023/02/26 11:30:37;;;;;;;1.33;0.77;;;;;;;5.22;43.32;97349.53;6249369;28;20473;-77
2023/02/26 11:33:49;;;;;;;1.07;0.87;;;;;;;4.99;42.17;97351.94;6237191;28;20225;-74
2023/02/26 11:36:55;;;;;;;1.27;0.77;;;;;;;4.73;43.06;97334.44;6229370;28;20228;-75
2023/02/26 11:40:06;;;;;;;0.70;0.70;;;;;;;4.55;43.82;97328.06;6245061;28;20749;-75
2023/02/26 11:43:17;;;;;;;1.40;0.93;;;;;;;4.53;45.76;97330.13;6246883;28;20223;-75
2023/02/26 11:46:24;;;;;;;1.87;0.80;;;;;;;4.53;46.39;97332.75;6253784;28;20238;-75
2023/02/26 11:49:27;;;;;;;1.00;0.83;;;;;;;4.44;46.12;97331.38;6244145;28;20218;-75
2023/02/26 11:52:45;;;;;;;1.10;0.83;;;;;;;4.29;45.68;97330.84;6224462;28;20227;-76
2023/02/26 11:55:59;;;;;;;1.40;0.83;;;;;;;4.34;46.81;97329.19;6246207;28;20231;-75
2023/02/26 11:59:27;;;;;;;0.80;0.60;;;;;;;4.63;46.87;97325.19;6256638;28;20223;-76
2023/02/26 12:02:36;;;;;;;1.27;0.90;;;;;;;4.85;47.05;97330.91;6244042;28;20234;-76
2023/02/26 12:05:39;;;;;;;2.03;0.53;;;;;;;4.91;46.23;97331.88;6256680;28;20240;-75
2023/02/26 12:08:42;;;;;;;1.50;0.90;;;;;;;4.70;45.38;97337.53;6252171;28;20235;-77
2023/02/26 12:12:09;;;;;;;2.00;0.90;;;;;;;4.55;46.42;97358.91;6255402;28;20238;-77
2023/02/26 12:15:22;;;;;;;0.70;0.60;;;;;;;3.60;56.80;97343.63;6269010;28;20226;-76
2023/02/26 12:18:34;;;;;;;0.83;0.70;;;;;;;2.62;62.52;97382.06;6262227;28;20606;-75
2023/02/26 12:21:45;;;;;;;0.73;0.60;;;;;;;2.00;64.88;97393.53;6274731;28;20234;-75
2023/02/26 12:25:15;;;;;;;0.60;0.60;;;;;;;1.69;67.80;97389.53;6258067;28;20387;-74
2023/02/26 12:28:40;;;;;;;1.27;0.60;;;;;;;1.74;67.56;97391.59;6261026;28;20253;-75
2023/02/26 12:31:51;;;;;;;1.43;0.70;;;;;;;2.04;66.18;97387.69;6270667;28;20231;-75
2023/02/26 12:35:29;;;;;;;1.33;0.80;;;;;;;2.50;64.31;97347.63;6255439;28;20315;-76
2023/02/26 12:39:18;;;;;;;0.70;0.70;;;;;;;3.04;63.00;97344.06;6178510;28;20400;-75
2023/02/26 12:42:32;;;;;;;1.07;0.80;;;;;;;3.34;60.60;97351.56;6148990;28;20220;-75
2023/02/26 12:45:43;;;;;;;2.07;0.80;;;;;;;3.68;59.77;97352.31;6178350;28;20230;-75
2023/02/26 12:49:03;;;;;;;1.00;0.90;;;;;;;3.83;59.06;97363.44;6157684;28;20232;-75
2023/02/26 12:52:32;;;;;;;0.80;0.70;;;;;;;3.80;58.30;97377.03;6168109;28;20217;-74
2023/02/26 12:55:48;;;;;;;0.77;0.77;;;;;;;3.80;56.71;97375.22;6159184;28;20280;-74
2023/02/26 12:59:13;;;;;;;0.83;0.80;;;;;;;3.38;54.96;97342.25;6147833;28;20237;-73
2023/02/26 13:02:36;;;;;;;0.70;0.70;;;;;;;3.75;55.50;97385.56;6186184;28;20820;-74
2023/02/26 13:05:57;;;;;;;0.80;0.73;;;;;;;3.77;56.46;97388.78;6180712;28;20224;-74
2023/02/26 13:09:30;;;;;;;3.47;3.17;;;;;;;3.71;55.34;97399.34;6193859;28;20245;-74
2023/02/26 13:12:53;;;;;;;5.47;4.33;;;;;;;3.73;55.86;97398.09;6239423;28;20332;-73
2023/02/26 13:16:10;;;;;;;2.17;1.60;;;;;;;3.79;55.92;97402.59;6259067;28;20223;-74
2023/02/26 13:19:43;;;;;;;1.67;1.40;;;;;;;3.71;55.82;97421.22;6254543;28;20704;-74
2023/02/26 13:22:52;;;;;;;1.07;0.87;;;;;;;3.57;54.59;97417.78;6278853;28;20238;-73
2023/02/26 13:26:04;;;;;;;1.03;0.77;;;;;;;3.15;53.81;97341.84;6280258;28;20711;-75
2023/02/26 13:29:12;;;;;;;0.85;0.70;;;;;;;4.06;52.80;97423.59;6287967;28;20783;-76
2023/02/26 13:32:23;;;;;;;1.87;1.00;;;;;;;3.91;52.26;97450.19;6276039;28;20235;-75
2023/02/26 13:35:35;;;;;;;0.73;0.73;;;;;;;3.83;52.41;97445.91;6271793;28;20226;-76
2023/02/26 13:39:03;;;;;;;0.70;0.70;;;;;;;3.80;51.77;97448.19;6275283;28;20229;-75
2023/02/26 13:42:26;;;;;;;0.80;0.80;;;;;;;3.77;51.61;97448.56;6255889;28;20614;-75
2023/02/26 13:45:28;;;;;;;1.20;1.10;;;;;;;3.77;51.50;97445.94;6272233;28;20231;-74
2023/02/26 13:48:41;;;;;;;1.03;0.90;;;;;;;3.82;51.55;97436.41;6242039;28;20218;-72
2023/02/26 13:51:47;;;;;;;1.05;0.70;;;;;;;3.51;48.82;97413.34;6238064;28;20457;-70
2023/02/26 13:54:52;;;;;;;1.05;0.93;;;;;;;3.90;49.47;97429.31;6237330;28;20454;-70
2023/02/26 13:57:54;;;;;;;0.70;0.70;;;;;;;3.44;49.35;97394.09;6241325;28;20313;-70
2023/02/26 14:01:15;;;;;;;0.70;0.70;;;;;;;3.59;49.72;97451.81;6255123;28;20904;-71
2023/02/26 14:04:23;;;;;;;0.93;0.90;;;;;;;3.15;53.28;97457.66;6251409;28;20696;-72
2023/02/26 14:08:17;;;;;;;1.17;0.70;;;;;;;2.76;55.64;97420.53;6279940;28;20241;-72
2023/02/26 14:11:31;;;;;;;1.10;1.00;;;;;;;3.15;55.69;97474.25;6175549;28;20447;-76
2023/02/26 14:15:03;;;;;;;1.17;0.80;;;;;;;2.94;56.40;97448.91;6178446;28;20229;-70
2023/02/26 14:18:30;;;;;;;0.73;0.65;;;;;;;3.17;55.20;97464.34;6173021;28;20846;-71
2023/02/26 14:21:57;;;;;;;0.80;0.70;;;;;;;2.99;55.87;97464.09;6172126;28;20363;-70
2023/02/26 14:25:21;;;;;;;1.33;0.80;;;;;;;2.99;54.99;97458.84;6170417;28;20373;-70
2023/02/26 14:28:24;;;;;;;0.87;0.70;;;;;;;2.99;53.83;97470.16;6138681;28;20608;-70
2023/02/26 14:31:54;;;;;;;1.20;0.93;;;;;;;3.06;54.74;97455.22;6150052;28;20308;-71
2023/02/26 14:35:09;;;;;;;5.00;3.33;;;;;;;3.17;54.40;97453.00;6144334;28;20226;-70
2023/02/26 14:38:22;;;;;;;3.60;2.13;;;;;;;3.20;53.65;97453.44;6142905;28;20219;-71
2023/02/26 14:41:38;;;;;;;1.20;1.00;;;;;;;3.26;53.24;97457.06;6140438;28;20375;-71
2023/02/26 14:44:52;;;;;;;0.70;0.70;;;;;;;3.00;52.44;97418.34;6181386;28;20231;-71
2023/02/26 14:47:58;;;;;;;0.73;0.70;;;;;;;2.85;52.57;97389.59;6249514;28;20641;-70
2023/02/26 14:51:02;;;;;;;0.80;0.77;;;;;;;3.42;52.54;97469.03;6240963;28;20231;-74
2023/02/26 14:54:32;;;;;;;1.30;1.10;;;;;;;3.43;52.49;97481.19;6247773;28;20226;-73
2023/02/26 14:57:57;;;;;;;0.70;0.70;;;;;;;3.00;51.12;97426.25;6251062;28;20269;-70
2023/02/26 15:01:28;;;;;;;1.20;0.73;;;;;;;3.04;50.35;97453.78;6245809;28;20235;-70
2023/02/26 15:04:50;;;;;;;0.93;0.87;;;;;;;3.20;51.24;97490.28;6222885;28;20231;-70